Gyumri Shirak Airport
UDSG : now visible

Airfield :











YOU CAN JOIN US ON...

 
LOGIN :

Register | Disclaimer

   EN    FR    IT 

 









Legend :    VFR   Marginal VFR   IFR   Intensive IFR   Very Intensive IFR
Visi :
Ceiling :
>= 8 km
>= 3000ft
5 to 8 km
1000 to 3000 ft
1500m to 5 km
500 to 1000 ft
800 to 1500m
200 to 500 ft
< 800m
< 200 ft
Symbols :   Thunderstorms  Fog  Heavy snow  Heavy precipitations  Wind > 20 kt






- Airport Elevation : 5000 ft
- IATA code : LWN


UDSG - Gyumri Shirak

CURRENT METAR :
  • 020730Z 16004KT 9999 BKN046 05/M01 Q1011 R02/29//55 NOSIG

EXPIRED METARs :
  • 020700Z 19005KT 9999 BKN043 04/M01 Q1011 R02/29//55 NOSIG
  • 020630Z 24003KT 9999 BKN043 04/M01 Q1011 R02/29//55 NOSIG
  • 020600Z VRB02KT 9999 BKN040 04/M01 Q1010 R02/29//55 NOSIG
  • 020530Z VRB02KT 9999 BKN043 03/M01 Q1010 R02/29//55 NOSIG
  • 020500Z 31004KT 250V360 9999 SCT040CB BKN049 02/M01 Q1010 R02/29//55 NOSIG
  • 020430Z 33002KT 9999 OVC040CB 01/M00 Q1009 R02/29//55 NOSIG

TAF TAF UDSG
Valid from the 02 at 06:00 until the 03 at 06:00 UTC


020512Z 0206/0306 24008KT 9999 BKN030
TEMPO 0207/0216 VRB20KT 5000 -SHRA BR SCT020CB OVC020



MET'MAP, your aeronautical weather chart ! - Copyright ORBIFLY December 2007 - Disclaimer

ORBIFLY MET'MAP TEAM :

Programming & Development : Alexandra Zaïnal
Concept & original design : Baudouin d'Aumeries
Assistance for programming : Marc-Olivier Méhu
Technical & hardware support : Manuel Goepfert

Contact : metmap@orbifly.com




SOURCES & CREDITS :

   NOAA       Earth
Advisory